Corpus Christi, TX (78401)

8:05 PM CST on February 08, 2016 (GMT -0600)
Aransas Cliffs | | Change Station
CLOSE
Current Station
Personal Weather Station
Location: Corpus Christi, TX
Elevation: 46 ft
Nearby Weather Stations

Elev 46 ft 27.75 °N, 97.38 °W | Updated 1 second ago

Mostly Cloudy
Mostly Cloudy
60.4 °F
Feels Like 60.4 °F
N
1.2
Wind Variable Wind from NNW
Gusts 1.2 mph

Today
High -- | Low -- °F
--% Chance of Precip.
Yesterday
High -- | Low -- °F
Precip. -- in
Pressure 30.32 in
Visibility 10.0 miles
Clouds Few 18000 ft
Mostly Cloudy 25000 ft
Dew Point 26 °F
Humidity 27%
Rainfall 0.00 in
Snow Depth Not available.
7:12 AM 6:15 PM
New Moon, 0% visible
METAR KCRP 090151Z 34004KT 10SM FEW180 BKN250 13/M05 A3032 RMK AO2 SLP267 T01331050
Pressure 30.32 in
Visibility 10.0 miles
Clouds Few 18000 ft
Mostly Cloudy 25000 ft
Dew Point 26 °F
Humidity 27%
Rainfall 0.00 in
Snow Depth Not available.
7:12 AM 6:15 PM
New Moon, 0% visible
METAR KCRP 090151Z 34004KT 10SM FEW180 BKN250 13/M05 A3032 RMK AO2 SLP267 T01331050

10-Day Weather Forecast

Almanac

Astronomy

Feb. 08, 2016 Rise Set
Actual Time
Civil Twilight
Nautical Twilight
Astronomical Twilight
Moon
Length of Visible Light
Length of Day
Tomorrow will be .
, % of the Moon is Illuminated

Today's Extremes

State Highs State Lows

Community

WunderPhotos

Upload Photos

1,891,527 photos uploaded!

WunderBlog® & News

Nearby

Air Quality

  Air Quality AQ Index Pollutant
Not available.

Snow Depth

Station Depth Elevation

Earthquake Activity

City Distance Mag. Time & Date
Minimum magnitude displayed is 2.5.

Coastal Water Temperatures

Place Temperature

Stations

Nearby Weather Stations

Station Location Temp. Windchill Dew Point Humidity Wind Precip. Elev Updated Type
                   

Watches & Warnings

There are currently no watches in effect.